sensor_id;sensor_type;location;lat;lon;timestamp;pressure;altitude;pressure_sealevel;temperature
48854;BMP280;34673;52.808;17.856;2023-08-31T00:01:20;99492.13;;;15.63
48854;BMP280;34673;52.808;17.856;2023-08-31T00:03:47;99505.72;;;15.71
48854;BMP280;34673;52.808;17.856;2023-08-31T00:06:14;99499.81;;;15.66
48854;BMP280;34673;52.808;17.856;2023-08-31T00:08:42;99506.69;;;15.68
48854;BMP280;34673;52.808;17.856;2023-08-31T00:11:09;99511.03;;;15.68
48854;BMP280;34673;52.808;17.856;2023-08-31T00:13:36;99506.88;;;15.64
48854;BMP280;34673;52.808;17.856;2023-08-31T00:16:05;99515.59;;;15.63
48854;BMP280;34673;52.808;17.856;2023-08-31T00:18:32;99509.50;;;15.64
48854;BMP280;34673;52.808;17.856;2023-08-31T00:20:59;99519.03;;;15.63
48854;BMP280;34673;52.808;17.856;2023-08-31T00:23:26;99522.56;;;15.62
48854;BMP280;34673;52.808;17.856;2023-08-31T00:25:54;99516.38;;;15.65
48854;BMP280;34673;52.808;17.856;2023-08-31T00:28:22;99511.16;;;15.65
48854;BMP280;34673;52.808;17.856;2023-08-31T00:30:51;99499.31;;;15.58
48854;BMP280;34673;52.808;17.856;2023-08-31T00:33:18;99504.13;;;15.67
48854;BMP280;34673;52.808;17.856;2023-08-31T00:35:46;99504.28;;;15.64
48854;BMP280;34673;52.808;17.856;2023-08-31T00:38:13;99514.56;;;15.67
48854;BMP280;34673;52.808;17.856;2023-08-31T00:40:42;99504.13;;;15.67
48854;BMP280;34673;52.808;17.856;2023-08-31T00:43:13;99503.31;;;15.66
48854;BMP280;34673;52.808;17.856;2023-08-31T00:45:48;99502.56;;;15.63
48854;BMP280;34673;52.808;17.856;2023-08-31T00:48:17;99500.59;;;15.68
48854;BMP280;34673;52.808;17.856;2023-08-31T00:50:45;99502.38;;;15.67
48854;BMP280;34673;52.808;17.856;2023-08-31T00:53:13;99502.44;;;15.66
48854;BMP280;34673;52.808;17.856;2023-08-31T00:55:44;99504.13;;;15.67
48854;BMP280;34673;52.808;17.856;2023-08-31T00:58:11;99499.75;;;15.69
48854;BMP280;34673;52.808;17.856;2023-08-31T01:03:54;99492.13;;;15.63
48854;BMP280;34673;52.808;17.856;2023-08-31T01:12:18;99496.09;;;15.73
48854;BMP280;34673;52.808;17.856;2023-08-31T01:14:52;99497.75;;;15.74
48854;BMP280;34673;52.808;17.856;2023-08-31T01:17:22;99488.25;;;15.73
48854;BMP280;34673;52.808;17.856;2023-08-31T01:19:54;99491.84;;;15.70
48854;BMP280;34673;52.808;17.856;2023-08-31T01:22:31;99491.06;;;15.68
48854;BMP280;34673;52.808;17.856;2023-08-31T01:25:01;99484.25;;;15.64
48854;BMP280;34673;52.808;17.856;2023-08-31T01:27:31;99484.97;;;15.68
48854;BMP280;34673;52.808;17.856;2023-08-31T01:29:59;99484.97;;;15.68
48854;BMP280;34673;52.808;17.856;2023-08-31T01:32:26;99490.06;;;15.71
48854;BMP280;34673;52.808;17.856;2023-08-31T01:34:54;99493.59;;;15.70
48854;BMP280;34673;52.808;17.856;2023-08-31T01:40:20;99478.06;;;15.67
48854;BMP280;34673;52.808;17.856;2023-08-31T01:42:50;99467.78;;;15.64
48854;BMP280;34673;52.808;17.856;2023-08-31T01:45:22;99480.72;;;15.65
48854;BMP280;34673;52.808;17.856;2023-08-31T01:47:49;99478.22;;;15.64
48854;BMP280;34673;52.808;17.856;2023-08-31T01:50:18;99486.72;;;15.69
48854;BMP280;34673;52.808;17.856;2023-08-31T01:52:45;99484.97;;;15.68
48854;BMP280;34673;52.808;17.856;2023-08-31T01:55:12;99477.13;;;15.69
48854;BMP280;34673;52.808;17.856;2023-08-31T01:57:43;99481.72;;;15.63
48854;BMP280;34673;52.808;17.856;2023-08-31T02:00:18;99484.97;;;15.68
48854;BMP280;34673;52.808;17.856;2023-08-31T02:02:46;99477.13;;;15.69
48854;BMP280;34673;52.808;17.856;2023-08-31T02:05:14;99481.50;;;15.69
48854;BMP280;34673;52.808;17.856;2023-08-31T02:07:41;99488.50;;;15.67
48854;BMP280;34673;52.808;17.856;2023-08-31T02:10:09;99469.59;;;15.62
48854;BMP280;34673;52.808;17.856;2023-08-31T02:12:36;99489.34;;;15.67
48854;BMP280;34673;52.808;17.856;2023-08-31T02:15:05;99481.78;;;15.61
48854;BMP280;34673;52.808;17.856;2023-08-31T02:17:35;99489.38;;;15.66
48854;BMP280;34673;52.808;17.856;2023-08-31T02:20:03;99488.63;;;15.64
48854;BMP280;34673;52.808;17.856;2023-08-31T02:22:34;99489.38;;;15.66
48854;BMP280;34673;52.808;17.856;2023-08-31T02:25:02;99488.41;;;15.70
48854;BMP280;34673;52.808;17.856;2023-08-31T02:27:29;99484.97;;;15.68
48854;BMP280;34673;52.808;17.856;2023-08-31T02:29:57;99495.41;;;15.68
48854;BMP280;34673;52.808;17.856;2023-08-31T02:32:26;99491.78;;;15.72
48854;BMP280;34673;52.808;17.856;2023-08-31T02:34:53;99490.06;;;15.71
48854;BMP280;34673;52.808;17.856;2023-08-31T02:37:20;99491.78;;;15.72
48854;BMP280;34673;52.808;17.856;2023-08-31T02:39:47;99476.34;;;15.66
48854;BMP280;34673;52.808;17.856;2023-08-31T02:42:15;99484.19;;;15.66
48854;BMP280;34673;52.808;17.856;2023-08-31T02:44:45;99484.97;;;15.68
48854;BMP280;34673;52.808;17.856;2023-08-31T02:47:12;99492.69;;;15.71
48854;BMP280;34673;52.808;17.856;2023-08-31T02:49:39;99499.75;;;15.67
48854;BMP280;34673;52.808;17.856;2023-08-31T02:52:07;99481.72;;;15.63
48854;BMP280;34673;52.808;17.856;2023-08-31T02:54:34;99490.19;;;15.68
48854;BMP280;34673;52.808;17.856;2023-08-31T02:57:01;99488.50;;;15.67
48854;BMP280;34673;52.808;17.856;2023-08-31T02:59:29;99479.88;;;15.65
48854;BMP280;34673;52.808;17.856;2023-08-31T03:01:56;99490.25;;;15.66
48854;BMP280;34673;52.808;17.856;2023-08-31T03:04:24;99488.63;;;15.64
48854;BMP280;34673;52.808;17.856;2023-08-31T03:06:51;99487.06;;;15.60
48854;BMP280;34673;52.808;17.856;2023-08-31T03:09:18;99499.06;;;15.64
48854;BMP280;34673;52.808;17.856;2023-08-31T03:11:47;99499.06;;;15.64
48854;BMP280;34673;52.808;17.856;2023-08-31T03:14:14;99496.50;;;15.62
48854;BMP280;34673;52.808;17.856;2023-08-31T03:16:41;99497.47;;;15.60
48854;BMP280;34673;52.808;17.856;2023-08-31T03:19:09;99493.19;;;15.59
48854;BMP280;34673;52.808;17.856;2023-08-31T03:21:36;99495.84;;;15.57
48854;BMP280;34673;52.808;17.856;2023-08-31T03:24:03;99499.19;;;15.61
48854;BMP280;34673;52.808;17.856;2023-08-31T03:26:30;99493.31;;;15.56
48854;BMP280;34673;52.808;17.856;2023-08-31T03:28:58;99497.66;;;15.55
48854;BMP280;34673;52.808;17.856;2023-08-31T03:31:26;99501.16;;;15.56
48854;BMP280;34673;52.808;17.856;2023-08-31T03:33:53;99503.09;;;15.50
48854;BMP280;34673;52.808;17.856;2023-08-31T03:36:20;99503.22;;;15.47
48854;BMP280;34673;52.808;17.856;2023-08-31T03:38:48;99511.81;;;15.49
48854;BMP280;34673;52.808;17.856;2023-08-31T03:41:15;99510.97;;;15.49
48854;BMP280;34673;52.808;17.856;2023-08-31T03:43:42;99507.56;;;15.47
48854;BMP280;34673;52.808;17.856;2023-08-31T03:46:10;99515.34;;;15.48
48854;BMP280;34673;52.808;17.856;2023-08-31T03:48:38;99509.34;;;15.46
48854;BMP280;34673;52.808;17.856;2023-08-31T03:51:05;99498.25;;;15.41
48854;BMP280;34673;52.808;17.856;2023-08-31T03:53:32;99481.19;;;15.34
48854;BMP280;34673;52.808;17.856;2023-08-31T03:55:59;99501.66;;;15.43
48854;BMP280;34673;52.808;17.856;2023-08-31T03:58:26;99499.97;;;15.42
48854;BMP280;34673;52.808;17.856;2023-08-31T04:00:54;99498.25;;;15.41
48854;BMP280;34673;52.808;17.856;2023-08-31T04:03:21;99491.34;;;15.40
48854;BMP280;34673;52.808;17.856;2023-08-31T04:05:54;99492.19;;;15.41
48854;BMP280;34673;52.808;17.856;2023-08-31T04:08:22;99466.06;;;15.22
48854;BMP280;34673;52.808;17.856;2023-08-31T04:10:49;99490.56;;;15.38
48854;BMP280;34673;52.808;17.856;2023-08-31T04:13:16;99487.94;;;15.38
48854;BMP280;34673;52.808;17.856;2023-08-31T04:15:45;99487.94;;;15.38
48854;BMP280;34673;52.808;17.856;2023-08-31T04:18:14;99493.16;;;15.38
48854;BMP280;34673;52.808;17.856;2023-08-31T04:20:53;99484.47;;;15.39
48854;BMP280;34673;52.808;17.856;2023-08-31T04:23:21;99486.13;;;15.40
48854;BMP280;34673;52.808;17.856;2023-08-31T04:25:48;99479.25;;;15.39
48854;BMP280;34673;52.808;17.856;2023-08-31T04:28:18;99492.00;;;15.45
48854;BMP280;34673;52.808;17.856;2023-08-31T04:30:45;99495.47;;;15.46
48854;BMP280;34673;52.808;17.856;2023-08-31T04:33:13;99490.84;;;15.52
48854;BMP280;34673;52.808;17.856;2023-08-31T04:35:40;99485.75;;;15.49
48854;BMP280;34673;52.808;17.856;2023-08-31T04:38:08;99492.53;;;15.54
48854;BMP280;34673;52.808;17.856;2023-08-31T04:40:35;99494.22;;;15.55
48854;BMP280;34673;52.808;17.856;2023-08-31T04:43:06;99485.75;;;15.49
48854;BMP280;34673;52.808;17.856;2023-08-31T04:45:33;99487.06;;;15.60
48854;BMP280;34673;52.808;17.856;2023-08-31T04:48:00;99495.53;;;15.65
48854;BMP280;34673;52.808;17.856;2023-08-31T04:50:27;99493.84;;;15.64
48854;BMP280;34673;52.808;17.856;2023-08-31T04:52:55;99495.38;;;15.69
48854;BMP280;34673;52.808;17.856;2023-08-31T04:55:22;99500.50;;;15.71
48854;BMP280;34673;52.808;17.856;2023-08-31T04:57:50;99506.50;;;15.73
48854;BMP280;34673;52.808;17.856;2023-08-31T05:00:17;99506.47;;;15.75
48854;BMP280;34673;52.808;17.856;2023-08-31T05:02:45;99507.16;;;15.78
48854;BMP280;34673;52.808;17.856;2023-08-31T05:05:13;99506.09;;;15.82
48854;BMP280;34673;52.808;17.856;2023-08-31T05:07:40;99501.81;;;15.81
48854;BMP280;34673;52.808;17.856;2023-08-31T05:10:08;99506.69;;;15.89
48854;BMP280;34673;52.808;17.856;2023-08-31T05:12:35;99503.13;;;15.91
48854;BMP280;34673;52.808;17.856;2023-08-31T05:15:03;99508.97;;;15.97
48854;BMP280;34673;52.808;17.856;2023-08-31T05:17:30;99504.66;;;15.95
48854;BMP280;34673;52.808;17.856;2023-08-31T05:19:58;99501.84;;;16.00
48854;BMP280;34673;52.808;17.856;2023-08-31T05:22:25;99492.53;;;15.94
48854;BMP280;34673;52.808;17.856;2023-08-31T05:24:52;99505.31;;;16.01
48854;BMP280;34673;52.808;17.856;2023-08-31T05:27:19;99499.56;;;15.92
48854;BMP280;34673;52.808;17.856;2023-08-31T05:29:46;99499.56;;;15.92
48854;BMP280;34673;52.808;17.856;2023-08-31T05:32:13;99506.38;;;15.97
48854;BMP280;34673;52.808;17.856;2023-08-31T05:34:40;99511.44;;;16.00
48854;BMP280;34673;52.808;17.856;2023-08-31T05:37:08;99506.63;;;15.90
48854;BMP280;34673;52.808;17.856;2023-08-31T05:39:35;99521.88;;;16.00
48854;BMP280;34673;52.808;17.856;2023-08-31T05:42:02;99514.94;;;15.99
48854;BMP280;34673;52.808;17.856;2023-08-31T05:44:30;99521.47;;;16.09
48854;BMP280;34673;52.808;17.856;2023-08-31T05:46:57;99518.59;;;16.15
48854;BMP280;34673;52.808;17.856;2023-08-31T05:49:24;99512.00;;;16.06
48854;BMP280;34673;52.808;17.856;2023-08-31T05:51:51;99522.63;;;16.22
48854;BMP280;34673;52.808;17.856;2023-08-31T05:54:18;99518.19;;;16.24
48854;BMP280;34673;52.808;17.856;2023-08-31T05:56:46;99515.28;;;16.30
48854;BMP280;34673;52.808;17.856;2023-08-31T05:59:14;99511.91;;;16.28
48854;BMP280;34673;52.808;17.856;2023-08-31T06:01:43;99519.53;;;16.33
48854;BMP280;34673;52.808;17.856;2023-08-31T06:04:10;99513.19;;;16.38
48854;BMP280;34673;52.808;17.856;2023-08-31T06:06:37;99513.03;;;16.42
48854;BMP280;34673;52.808;17.856;2023-08-31T06:09:05;99526.44;;;16.53
48854;BMP280;34673;52.808;17.856;2023-08-31T06:11:33;99524.31;;;16.61
48854;BMP280;34673;52.808;17.856;2023-08-31T06:14:02;99516.72;;;16.75
48854;BMP280;34673;52.808;17.856;2023-08-31T06:16:30;99512.66;;;16.89
48854;BMP280;34673;52.808;17.856;2023-08-31T06:18:57;99516.97;;;17.07
48854;BMP280;34673;52.808;17.856;2023-08-31T06:21:25;99514.56;;;17.21
48854;BMP280;34673;52.808;17.856;2023-08-31T06:23:52;99515.50;;;17.38
48854;BMP280;34673;52.808;17.856;2023-08-31T06:26:19;99487.50;;;17.40
48854;BMP280;34673;52.808;17.856;2023-08-31T06:28:46;99514.94;;;17.66
48854;BMP280;34673;52.808;17.856;2023-08-31T06:31:13;99512.88;;;17.72
48854;BMP280;34673;52.808;17.856;2023-08-31T06:33:40;99508.13;;;17.81
48854;BMP280;34673;52.808;17.856;2023-08-31T06:36:08;99524.88;;;17.94
48854;BMP280;34673;52.808;17.856;2023-08-31T06:38:35;99508.16;;;17.97
48854;BMP280;34673;52.808;17.856;2023-08-31T06:41:02;99507.38;;;18.12
48854;BMP280;34673;52.808;17.856;2023-08-31T06:43:29;99518.03;;;18.25
48854;BMP280;34673;52.808;17.856;2023-08-31T06:45:57;99521.78;;;18.36
48854;BMP280;34673;52.808;17.856;2023-08-31T06:48:43;99512.66;;;18.44
48854;BMP280;34673;52.808;17.856;2023-08-31T06:51:11;99521.63;;;18.55
48854;BMP280;34673;52.808;17.856;2023-08-31T06:53:38;99513.19;;;18.66
48854;BMP280;34673;52.808;17.856;2023-08-31T06:56:05;99515.88;;;18.65
48854;BMP280;34673;52.808;17.856;2023-08-31T06:58:32;99515.56;;;18.71
48854;BMP280;34673;52.808;17.856;2023-08-31T07:00:59;99516.00;;;18.79
48854;BMP280;34673;52.808;17.856;2023-08-31T07:03:26;99517.75;;;18.94
48854;BMP280;34673;52.808;17.856;2023-08-31T07:05:54;99520.78;;;19.02
48854;BMP280;34673;52.808;17.856;2023-08-31T07:08:21;99524.88;;;19.08
48854;BMP280;34673;52.808;17.856;2023-08-31T07:10:51;99530.97;;;19.09
48854;BMP280;34673;52.808;17.856;2023-08-31T07:13:18;99527.91;;;19.16
48854;BMP280;34673;52.808;17.856;2023-08-31T07:15:45;99523.81;;;19.26
48854;BMP280;34673;52.808;17.856;2023-08-31T07:18:14;99532.75;;;19.38
48854;BMP280;34673;52.808;17.856;2023-08-31T07:20:42;99531.84;;;19.54
48854;BMP280;34673;52.808;17.856;2023-08-31T07:23:09;99537.75;;;19.73
48854;BMP280;34673;52.808;17.856;2023-08-31T07:25:37;99533.28;;;19.89
48854;BMP280;34673;52.808;17.856;2023-08-31T07:28:04;99530.50;;;20.07
48854;BMP280;34673;52.808;17.856;2023-08-31T07:30:31;99527.75;;;20.08
48854;BMP280;34673;52.808;17.856;2023-08-31T07:33:00;99519.59;;;20.13
48854;BMP280;34673;52.808;17.856;2023-08-31T07:35:50;99525.97;;;20.37
48854;BMP280;34673;52.808;17.856;2023-08-31T07:38:17;99529.94;;;20.45
48854;BMP280;34673;52.808;17.856;2023-08-31T07:40:44;99532.75;;;20.56
48854;BMP280;34673;52.808;17.856;2023-08-31T07:43:11;99531.34;;;20.65
48854;BMP280;34673;52.808;17.856;2023-08-31T07:45:39;99535.72;;;20.78
48854;BMP280;34673;52.808;17.856;2023-08-31T07:48:06;99530.81;;;20.87
48854;BMP280;34673;52.808;17.856;2023-08-31T07:50:33;99542.06;;;20.89
48854;BMP280;34673;52.808;17.856;2023-08-31T07:53:01;99551.84;;;20.87
48854;BMP280;34673;52.808;17.856;2023-08-31T07:55:28;99554.22;;;20.77
48854;BMP280;34673;52.808;17.856;2023-08-31T07:57:55;99560.59;;;20.73
48854;BMP280;34673;52.808;17.856;2023-08-31T08:00:22;99566.91;;;20.70
48854;BMP280;34673;52.808;17.856;2023-08-31T08:02:49;99562.84;;;20.79
48854;BMP280;34673;52.808;17.856;2023-08-31T08:05:17;99558.81;;;20.88
48854;BMP280;34673;52.808;17.856;2023-08-31T08:07:46;99566.66;;;21.02
48854;BMP280;34673;52.808;17.856;2023-08-31T08:10:14;99573.00;;;21.12
48854;BMP280;34673;52.808;17.856;2023-08-31T08:12:42;99573.22;;;21.09
48854;BMP280;34673;52.808;17.856;2023-08-31T08:15:13;99569.44;;;21.13
48854;BMP280;34673;52.808;17.856;2023-08-31T08:17:41;99574.09;;;21.22
48854;BMP280;34673;52.808;17.856;2023-08-31T08:20:09;99577.66;;;21.21
48854;BMP280;34673;52.808;17.856;2023-08-31T08:22:36;99568.25;;;21.32
48854;BMP280;34673;52.808;17.856;2023-08-31T08:25:03;99560.25;;;21.33
48854;BMP280;34673;52.808;17.856;2023-08-31T08:27:31;99574.75;;;21.26
48854;BMP280;34673;52.808;17.856;2023-08-31T08:29:59;99575.50;;;21.01
48854;BMP280;34673;52.808;17.856;2023-08-31T08:32:27;99586.38;;;20.95
48854;BMP280;34673;52.808;17.856;2023-08-31T08:34:54;99585.84;;;20.75
48854;BMP280;34673;52.808;17.856;2023-08-31T08:37:21;99590.38;;;20.59
48854;BMP280;34673;52.808;17.856;2023-08-31T08:39:51;99598.44;;;20.42
48854;BMP280;34673;52.808;17.856;2023-08-31T08:42:22;99601.59;;;20.18
48854;BMP280;34673;52.808;17.856;2023-08-31T08:44:51;99604.56;;;19.98
48854;BMP280;34673;52.808;17.856;2023-08-31T08:47:19;99611.19;;;19.89
48854;BMP280;34673;52.808;17.856;2023-08-31T08:49:47;99600.19;;;19.82
48854;BMP280;34673;52.808;17.856;2023-08-31T08:52:15;99616.47;;;19.73
48854;BMP280;34673;52.808;17.856;2023-08-31T08:54:42;99618.84;;;19.62
48854;BMP280;34673;52.808;17.856;2023-08-31T08:57:10;99620.88;;;19.57
48854;BMP280;34673;52.808;17.856;2023-08-31T08:59:37;99616.81;;;19.67
48854;BMP280;34673;52.808;17.856;2023-08-31T09:02:05;99615.59;;;19.88
48854;BMP280;34673;52.808;17.856;2023-08-31T09:04:34;99614.50;;;20.07
48854;BMP280;34673;52.808;17.856;2023-08-31T09:07:01;99611.38;;;20.30
48854;BMP280;34673;52.808;17.856;2023-08-31T09:09:29;99613.06;;;20.60
48854;BMP280;34673;52.808;17.856;2023-08-31T09:11:56;99603.34;;;20.76
48854;BMP280;34673;52.808;17.856;2023-08-31T09:14:23;99613.84;;;20.76
48854;BMP280;34673;52.808;17.856;2023-08-31T09:16:51;99619.66;;;20.67
48854;BMP280;34673;52.808;17.856;2023-08-31T09:19:21;99624.44;;;20.61
48854;BMP280;34673;52.808;17.856;2023-08-31T09:21:49;99626.13;;;20.62
48854;BMP280;34673;52.808;17.856;2023-08-31T09:24:17;99624.53;;;20.73
48854;BMP280;34673;52.808;17.856;2023-08-31T09:26:57;99631.28;;;20.77
48854;BMP280;34673;52.808;17.856;2023-08-31T09:29:25;99635.03;;;20.73
48854;BMP280;34673;52.808;17.856;2023-08-31T09:31:52;99630.94;;;20.55
48854;BMP280;34673;52.808;17.856;2023-08-31T09:34:19;99627.78;;;20.34
48854;BMP280;34673;52.808;17.856;2023-08-31T09:36:49;99631.22;;;20.20
48854;BMP280;34673;52.808;17.856;2023-08-31T09:39:16;99632.25;;;20.18
48854;BMP280;34673;52.808;17.856;2023-08-31T09:41:53;99643.47;;;20.50
48854;BMP280;34673;52.808;17.856;2023-08-31T09:44:20;99615.47;;;20.49
48854;BMP280;34673;52.808;17.856;2023-08-31T09:46:48;99645.09;;;20.67
48854;BMP280;34673;52.808;17.856;2023-08-31T09:49:16;99645.13;;;20.51
48854;BMP280;34673;52.808;17.856;2023-08-31T09:51:45;99652.06;;;20.23
48854;BMP280;34673;52.808;17.856;2023-08-31T09:54:14;99650.94;;;19.97
48854;BMP280;34673;52.808;17.856;2023-08-31T09:56:44;99654.72;;;19.77
48854;BMP280;34673;52.808;17.856;2023-08-31T09:59:13;99656.25;;;19.65
48854;BMP280;34673;52.808;17.856;2023-08-31T10:01:41;99654.56;;;19.48
48854;BMP280;34673;52.808;17.856;2023-08-31T10:04:09;99646.97;;;19.28
48854;BMP280;34673;52.808;17.856;2023-08-31T10:06:38;99672.44;;;19.26
48854;BMP280;34673;52.808;17.856;2023-08-31T10:09:06;99670.63;;;19.11
48854;BMP280;34673;52.808;17.856;2023-08-31T10:11:38;99671.81;;;18.89
48854;BMP280;34673;52.808;17.856;2023-08-31T10:14:06;99666.13;;;18.64
48854;BMP280;34673;52.808;17.856;2023-08-31T10:16:35;99686.34;;;18.44
48854;BMP280;34673;52.808;17.856;2023-08-31T10:19:05;99685.13;;;18.34
48854;BMP280;34673;52.808;17.856;2023-08-31T10:21:32;99685.97;;;18.17
48854;BMP280;34673;52.808;17.856;2023-08-31T10:24:00;99688.19;;;18.07
48854;BMP280;34673;52.808;17.856;2023-08-31T10:26:29;99696.97;;;18.06
48854;BMP280;34673;52.808;17.856;2023-08-31T10:28:58;99688.50;;;18.01
48854;BMP280;34673;52.808;17.856;2023-08-31T10:31:31;99682.94;;;17.90
48854;BMP280;34673;52.808;17.856;2023-08-31T10:34:00;99695.88;;;17.93
48854;BMP280;34673;52.808;17.856;2023-08-31T10:36:39;99688.97;;;17.92
48854;BMP280;34673;52.808;17.856;2023-08-31T10:41:38;99686.97;;;17.97
48854;BMP280;34673;52.808;17.856;2023-08-31T10:44:26;99691.75;;;18.06
48854;BMP280;34673;52.808;17.856;2023-08-31T10:46:54;99689.44;;;18.17
48854;BMP280;34673;52.808;17.856;2023-08-31T10:49:23;99689.91;;;18.43
48854;BMP280;34673;52.808;17.856;2023-08-31T10:51:57;99686.47;;;18.58
48854;BMP280;34673;52.808;17.856;2023-08-31T10:54:32;99690.16;;;18.72
48854;BMP280;34673;52.808;17.856;2023-08-31T10:57:06;99678.28;;;18.65
48854;BMP280;34673;52.808;17.856;2023-08-31T10:59:44;99694.94;;;18.64
48854;BMP280;34673;52.808;17.856;2023-08-31T11:07:42;99693.50;;;18.58
48854;BMP280;34673;52.808;17.856;2023-08-31T11:12:51;99701.63;;;18.69
48854;BMP280;34673;52.808;17.856;2023-08-31T11:15:23;99691.16;;;18.69
48854;BMP280;34673;52.808;17.856;2023-08-31T11:17:51;99709.22;;;18.58
48854;BMP280;34673;52.808;17.856;2023-08-31T11:20:20;99693.59;;;18.39
48854;BMP280;34673;52.808;17.856;2023-08-31T11:22:49;99719.94;;;18.36
48854;BMP280;34673;52.808;17.856;2023-08-31T11:25:17;99707.16;;;18.30
48854;BMP280;34673;52.808;17.856;2023-08-31T11:27:55;99709.47;;;18.36
48854;BMP280;34673;52.808;17.856;2023-08-31T11:30:22;99713.69;;;18.38
48854;BMP280;34673;52.808;17.856;2023-08-31T11:32:52;99685.94;;;18.34
48854;BMP280;34673;52.808;17.856;2023-08-31T11:35:21;99704.75;;;18.43
48854;BMP280;34673;52.808;17.856;2023-08-31T11:37:51;99715.16;;;18.44
48854;BMP280;34673;52.808;17.856;2023-08-31T11:40:18;99721.47;;;18.40
48854;BMP280;34673;52.808;17.856;2023-08-31T11:42:48;99716.69;;;18.31
48854;BMP280;34673;52.808;17.856;2023-08-31T11:45:16;99717.16;;;18.22
48854;BMP280;34673;52.808;17.856;2023-08-31T11:47:43;99711.31;;;18.16
48854;BMP280;34673;52.808;17.856;2023-08-31T11:50:13;99695.56;;;17.99
48854;BMP280;34673;52.808;17.856;2023-08-31T11:52:41;99716.06;;;18.08
48854;BMP280;34673;52.808;17.856;2023-08-31T11:55:13;99710.13;;;18.05
48854;BMP280;34673;52.808;17.856;2023-08-31T11:57:50;99709.44;;;18.01
48854;BMP280;34673;52.808;17.856;2023-08-31T12:00:19;99707.13;;;17.95
48854;BMP280;34673;52.808;17.856;2023-08-31T12:03:01;99701.81;;;17.97
48854;BMP280;34673;52.808;17.856;2023-08-31T12:05:29;99704.19;;;18.01
48854;BMP280;34673;52.808;17.856;2023-08-31T12:07:58;99708.59;;;18.01
48854;BMP280;34673;52.808;17.856;2023-08-31T12:10:26;99710.53;;;17.97
48854;BMP280;34673;52.808;17.856;2023-08-31T12:12:54;99721.00;;;17.97
48854;BMP280;34673;52.808;17.856;2023-08-31T12:15:23;99728.91;;;17.96
48854;BMP280;34673;52.808;17.856;2023-08-31T12:17:56;99720.38;;;17.92
48854;BMP280;34673;52.808;17.856;2023-08-31T12:20:25;99724.03;;;17.88
48854;BMP280;34673;52.808;17.856;2023-08-31T12:22:53;99722.34;;;17.87
48854;BMP280;34673;52.808;17.856;2023-08-31T12:25:23;99723.97;;;17.89
48854;BMP280;34673;52.808;17.856;2023-08-31T12:27:50;99732.50;;;17.93
48854;BMP280;34673;52.808;17.856;2023-08-31T12:30:17;99710.47;;;17.80
48854;BMP280;34673;52.808;17.856;2023-08-31T12:32:45;99733.72;;;17.86
48854;BMP280;34673;52.808;17.856;2023-08-31T12:35:12;99741.56;;;17.86
48854;BMP280;34673;52.808;17.856;2023-08-31T12:37:41;99725.03;;;17.85
48854;BMP280;34673;52.808;17.856;2023-08-31T12:40:09;99728.97;;;17.94
48854;BMP280;34673;52.808;17.856;2023-08-31T12:42:36;99720.06;;;17.98
48854;BMP280;34673;52.808;17.856;2023-08-31T12:45:04;99721.47;;;18.05
48854;BMP280;34673;52.808;17.856;2023-08-31T12:47:34;99716.69;;;18.13
48854;BMP280;34673;52.808;17.856;2023-08-31T12:50:02;99704.22;;;18.19
48854;BMP280;34673;52.808;17.856;2023-08-31T12:52:30;99708.28;;;18.42
48854;BMP280;34673;52.808;17.856;2023-08-31T12:54:57;99713.75;;;18.54
48854;BMP280;34673;52.808;17.856;2023-08-31T12:57:24;99697.44;;;18.49
48854;BMP280;34673;52.808;17.856;2023-08-31T12:59:51;99714.97;;;18.65
48854;BMP280;34673;52.808;17.856;2023-08-31T13:02:18;99708.97;;;18.63
48854;BMP280;34673;52.808;17.856;2023-08-31T13:04:47;99686.03;;;18.50
48854;BMP280;34673;52.808;17.856;2023-08-31T13:07:14;99704.91;;;18.74
48854;BMP280;34673;52.808;17.856;2023-08-31T13:09:41;99701.38;;;18.91
48854;BMP280;34673;52.808;17.856;2023-08-31T13:12:08;99667.66;;;18.85
48854;BMP280;34673;52.808;17.856;2023-08-31T13:14:35;99710.50;;;19.17
48854;BMP280;34673;52.808;17.856;2023-08-31T13:17:03;99707.19;;;19.30
48854;BMP280;34673;52.808;17.856;2023-08-31T13:19:30;99711.75;;;19.26
48854;BMP280;34673;52.808;17.856;2023-08-31T13:21:58;99695.00;;;19.13
48854;BMP280;34673;52.808;17.856;2023-08-31T13:24:25;99694.81;;;19.16
48854;BMP280;34673;52.808;17.856;2023-08-31T13:26:52;99703.66;;;19.31
48854;BMP280;34673;52.808;17.856;2023-08-31T13:29:19;99706.03;;;19.35
48854;BMP280;34673;52.808;17.856;2023-08-31T13:31:47;99703.84;;;19.43
48854;BMP280;34673;52.808;17.856;2023-08-31T13:34:14;99707.03;;;19.48
48854;BMP280;34673;52.808;17.856;2023-08-31T13:36:42;99705.00;;;19.38
48854;BMP280;34673;52.808;17.856;2023-08-31T13:39:09;99724.41;;;19.35
48854;BMP280;34673;52.808;17.856;2023-08-31T13:41:36;99720.75;;;19.22
48854;BMP280;34673;52.808;17.856;2023-08-31T13:44:04;99720.94;;;19.01
48854;BMP280;34673;52.808;17.856;2023-08-31T13:46:31;99715.59;;;18.87
48854;BMP280;34673;52.808;17.856;2023-08-31T13:48:58;99724.22;;;18.72
48854;BMP280;34673;52.808;17.856;2023-08-31T13:51:28;99723.91;;;18.60
48854;BMP280;34673;52.808;17.856;2023-08-31T13:53:55;99731.66;;;18.46
48854;BMP280;34673;52.808;17.856;2023-08-31T13:56:22;99735.63;;;18.36
48854;BMP280;34673;52.808;17.856;2023-08-31T13:58:50;99723.25;;;18.22
48854;BMP280;34673;52.808;17.856;2023-08-31T14:01:17;99731.09;;;18.22
48854;BMP280;34673;52.808;17.856;2023-08-31T14:03:44;99737.38;;;18.18
48854;BMP280;34673;52.808;17.856;2023-08-31T14:06:11;99751.56;;;18.14
48854;BMP280;34673;52.808;17.856;2023-08-31T14:08:39;99758.09;;;18.05
48854;BMP280;34673;52.808;17.856;2023-08-31T14:11:07;99773.09;;;18.02
48854;BMP280;34673;52.808;17.856;2023-08-31T14:13:34;99775.31;;;17.92
48854;BMP280;34673;52.808;17.856;2023-08-31T14:16:01;99779.78;;;17.90
48854;BMP280;34673;52.808;17.856;2023-08-31T14:18:29;99781.59;;;17.88
48854;BMP280;34673;52.808;17.856;2023-08-31T14:20:58;99773.13;;;17.83
48854;BMP280;34673;52.808;17.856;2023-08-31T14:23:27;99784.22;;;17.88
48854;BMP280;34673;52.808;17.856;2023-08-31T14:26:00;99790.09;;;17.93